Time;durP1;ratioP1;P1;durP2;ratioP2;P2;SDS_P1;SDS_P2;PMS_P1;PMS_P2;Temp;Humidity;BMP_temperature;BMP_pressure;BME280_temperature;BME280_humidity;BME280_pressure;Samples;Min_cycle;Max_cycle;Signal;HPM_P1;HPM_P2
2021/07/23 00:02:06;;;;;;;1.53;1.27;;;27.60;51.50;;;;;;5017909;28;20541;-26
2021/07/23 00:04:37;;;;;;;1.40;1.20;;;27.60;51.80;;;;;;5012149;28;20456;-26
2021/07/23 00:07:08;;;;;;;1.30;1.10;;;27.50;49.50;;;;;;5006723;28;20519;-27
2021/07/23 00:09:39;;;;;;;1.20;1.20;;;27.40;50.30;;;;;;5020453;28;20479;-27
2021/07/23 00:12:11;;;;;;;1.40;1.30;;;27.40;51.50;;;;;;5019189;28;20483;-27
2021/07/23 00:14:43;;;;;;;1.57;1.10;;;27.20;51.30;;;;;;5025528;28;20956;-26
2021/07/23 00:17:14;;;;;;;1.37;1.10;;;27.20;52.00;;;;;;5023281;28;20528;-26
2021/07/23 00:19:46;;;;;;;1.33;1.23;;;27.20;50.20;;;;;;5021195;28;20564;-27
2021/07/23 00:22:18;;;;;;;1.73;1.07;;;27.20;50.70;;;;;;5019064;28;20490;-27
2021/07/23 00:24:50;;;;;;;1.50;1.40;;;27.30;51.90;;;;;;5021679;28;20849;-27
2021/07/23 00:27:21;;;;;;;1.27;0.73;;;27.20;50.60;;;;;;5024222;28;20538;-26
2021/07/23 00:29:53;;;;;;;1.57;1.47;;;27.20;50.60;;;;;;5018976;28;20573;-26
2021/07/23 00:32:24;;;;;;;0.97;0.97;;;26.90;50.60;;;;;;5013491;28;20925;-26
2021/07/23 00:34:55;;;;;;;1.53;0.97;;;27.00;51.60;;;;;;5022056;28;20488;-26
2021/07/23 00:37:26;;;;;;;2.50;1.30;;;26.90;51.10;;;;;;5019626;28;20489;-26
2021/07/23 00:39:57;;;;;;;1.47;1.37;;;27.00;50.20;;;;;;5012566;28;20531;-26
2021/07/23 00:42:40;;;;;;;1.43;1.30;;;27.00;50.30;;;;;;5021470;28;20494;-26
2021/07/23 00:45:14;;;;;;;1.43;1.33;;;26.90;49.40;;;;;;5019782;28;20550;-26
2021/07/23 00:47:48;;;;;;;1.03;1.00;;;26.80;49.00;;;;;;5013319;28;20460;-26
2021/07/23 00:50:19;;;;;;;2.00;1.50;;;26.80;49.60;;;;;;5024174;28;20458;-26
2021/07/23 00:52:50;;;;;;;3.80;2.00;;;26.70;50.40;;;;;;5021743;28;20478;-31
2021/07/23 00:55:22;;;;;;;1.47;1.37;;;26.50;50.10;;;;;;5005354;28;20447;-27
2021/07/23 00:57:55;;;;;;;1.40;1.30;;;26.50;50.20;;;;;;5030999;28;20438;-27
2021/07/23 01:00:28;;;;;;;1.50;1.40;;;26.40;50.80;;;;;;5024437;28;20455;-26
2021/07/23 01:03:00;;;;;;;1.80;1.40;;;26.40;51.00;;;;;;5014979;28;20537;-26
2021/07/23 01:05:32;;;;;;;2.80;2.40;;;26.30;52.20;;;;;;5023399;28;20458;-26
2021/07/23 01:08:04;;;;;;;2.40;2.20;;;26.20;53.10;;;;;;5022518;28;20482;-26
2021/07/23 01:10:37;;;;;;;4.20;3.80;;;26.20;53.90;;;;;;5024817;28;20500;-27
2021/07/23 01:13:09;;;;;;;2.20;1.23;;;26.10;54.30;;;;;;5013972;28;20888;-27
2021/07/23 01:15:41;;;;;;;1.40;1.30;;;26.10;55.30;;;;;;5022337;28;20450;-27
2021/07/23 01:18:12;;;;;;;1.17;1.07;;;26.10;55.00;;;;;;5023905;28;20454;-27
2021/07/23 01:20:45;;;;;;;1.40;1.30;;;26.00;55.30;;;;;;5021672;28;20454;-26
2021/07/23 01:23:24;;;;;;;1.57;1.40;;;25.90;55.30;;;;;;5026090;28;20487;-26
2021/07/23 01:25:55;;;;;;;1.17;1.07;;;25.90;55.30;;;;;;5024092;28;20489;-27
2021/07/23 01:28:27;;;;;;;1.60;1.20;;;25.90;55.20;;;;;;5004848;28;20444;-26
2021/07/23 01:30:58;;;;;;;1.00;1.00;;;25.80;55.00;;;;;;5004878;28;20455;-26
2021/07/23 01:33:29;;;;;;;1.37;1.27;;;25.70;55.10;;;;;;5017205;28;20478;-27
2021/07/23 01:36:01;;;;;;;2.50;1.50;;;25.70;55.90;;;;;;5022821;28;20458;-26
2021/07/23 01:38:35;;;;;;;2.33;1.40;;;25.70;55.60;;;;;;5024019;28;20521;-26
2021/07/23 01:41:06;;;;;;;1.70;1.60;;;25.70;56.10;;;;;;5023001;28;20473;-26
2021/07/23 01:43:40;;;;;;;1.50;1.40;;;25.70;56.30;;;;;;5010961;28;20486;-26
2021/07/23 01:46:11;;;;;;;1.67;1.43;;;25.60;57.30;;;;;;5007142;28;20455;-25
2021/07/23 01:48:42;;;;;;;2.23;1.30;;;25.60;57.60;;;;;;5017205;28;20455;-26
2021/07/23 01:51:13;;;;;;;1.37;1.27;;;25.60;58.00;;;;;;5019152;28;20527;-26
2021/07/23 01:53:49;;;;;;;1.27;1.27;;;25.60;58.60;;;;;;5010643;28;20480;-26
2021/07/23 01:56:19;;;;;;;1.60;1.40;;;25.50;59.10;;;;;;5018379;28;20475;-26
2021/07/23 01:58:50;;;;;;;1.67;1.30;;;25.50;59.70;;;;;;5011576;28;20521;-26
2021/07/23 02:01:22;;;;;;;2.27;2.03;;;25.40;60.70;;;;;;5033935;28;20450;-26
2021/07/23 02:03:53;;;;;;;1.73;1.60;;;25.30;61.30;;;;;;5021646;28;20834;-26
2021/07/23 02:06:24;;;;;;;1.50;1.40;;;25.40;59.80;;;;;;5022749;28;20485;-26
2021/07/23 02:08:56;;;;;;;1.30;1.30;;;25.30;60.10;;;;;;5022794;28;20476;-27
2021/07/23 02:11:27;;;;;;;1.70;1.60;;;25.20;61.60;;;;;;5021770;28;20454;-26
2021/07/23 02:14:00;;;;;;;1.60;1.50;;;25.10;62.80;;;;;;5016036;28;20471;-27
2021/07/23 02:16:31;;;;;;;1.83;1.60;;;25.10;61.90;;;;;;5011041;28;20438;-26
2021/07/23 02:19:02;;;;;;;1.67;1.60;;;25.10;61.80;;;;;;5022703;28;20475;-28
2021/07/23 02:21:33;;;;;;;1.20;1.20;;;25.00;61.00;;;;;;5018506;28;20450;-26
2021/07/23 02:24:07;;;;;;;1.67;1.57;;;24.90;61.60;;;;;;5020649;28;20982;-27
2021/07/23 02:26:37;;;;;;;2.07;1.60;;;24.90;62.30;;;;;;5018247;28;20478;-26
2021/07/23 02:29:08;;;;;;;2.30;1.50;;;24.80;61.50;;;;;;5011590;28;20481;-27
2021/07/23 02:31:39;;;;;;;1.53;1.43;;;24.80;60.90;;;;;;5011136;28;20499;-27
2021/07/23 02:34:10;;;;;;;2.07;1.97;;;24.70;61.40;;;;;;5019299;28;20476;-27
2021/07/23 02:36:41;;;;;;;2.20;2.00;;;24.60;62.40;;;;;;5013619;28;20474;-25
2021/07/23 02:39:14;;;;;;;2.73;2.30;;;24.60;63.40;;;;;;5006355;28;20454;-25
2021/07/23 02:41:45;;;;;;;2.53;1.90;;;24.60;63.50;;;;;;5022524;28;20471;-26
2021/07/23 02:44:16;;;;;;;1.80;1.70;;;24.60;63.70;;;;;;5022480;28;20454;-26
2021/07/23 02:46:47;;;;;;;1.87;1.77;;;24.40;64.80;;;;;;5012073;28;20463;-26
2021/07/23 02:49:18;;;;;;;1.90;1.70;;;24.40;65.60;;;;;;5028359;28;21002;-26
2021/07/23 02:51:55;;;;;;;2.30;2.10;;;24.30;65.50;;;;;;5018230;28;20513;-26
2021/07/23 02:54:27;;;;;;;2.23;1.80;;;24.20;65.80;;;;;;5004087;28;20526;-26
2021/07/23 02:56:58;;;;;;;1.77;1.53;;;24.10;66.10;;;;;;5006229;28;20542;-26
2021/07/23 02:59:29;;;;;;;2.63;2.27;;;24.10;65.50;;;;;;5014099;28;20447;-29
2021/07/23 03:02:04;;;;;;;2.00;1.90;;;24.00;65.50;;;;;;5014617;28;20540;-26
2021/07/23 03:04:35;;;;;;;4.03;2.00;;;23.90;65.80;;;;;;5022720;28;20453;-26
2021/07/23 03:07:06;;;;;;;1.80;1.70;;;23.90;66.90;;;;;;5033437;28;20774;-26
2021/07/23 03:09:39;;;;;;;2.17;2.07;;;23.80;67.40;;;;;;5018699;28;20461;-27
2021/07/23 03:12:13;;;;;;;1.60;1.50;;;23.70;68.20;;;;;;5009176;28;20810;-27
2021/07/23 03:14:44;;;;;;;2.77;1.90;;;23.60;69.20;;;;;;5003359;28;20526;-27
2021/07/23 03:17:15;;;;;;;2.60;1.77;;;23.60;69.80;;;;;;5022280;28;20455;-26
2021/07/23 03:19:46;;;;;;;2.40;1.70;;;23.50;70.80;;;;;;5012869;28;20463;-26
2021/07/23 03:22:17;;;;;;;1.90;1.80;;;23.40;71.70;;;;;;5016599;28;20439;-26
2021/07/23 03:24:50;;;;;;;2.53;1.90;;;23.30;72.30;;;;;;5021958;28;20476;-27
2021/07/23 03:27:21;;;;;;;2.10;2.00;;;23.20;73.10;;;;;;5018840;28;20895;-27
2021/07/23 03:29:55;;;;;;;2.70;1.80;;;23.20;73.00;;;;;;5012140;28;20476;-27
2021/07/23 03:32:26;;;;;;;2.07;1.87;;;23.20;73.40;;;;;;5016586;28;20451;-26
2021/07/23 03:34:57;;;;;;;2.20;2.10;;;23.20;73.90;;;;;;5021890;28;20490;-27
2021/07/23 03:37:28;;;;;;;2.30;2.07;;;23.20;74.50;;;;;;5020940;28;20429;-26
2021/07/23 03:40:01;;;;;;;2.30;2.10;;;23.10;74.70;;;;;;5016221;28;20462;-26
2021/07/23 03:42:34;;;;;;;2.43;2.03;;;23.00;76.10;;;;;;5006852;28;20518;-26
2021/07/23 03:45:05;;;;;;;2.30;2.20;;;23.00;75.70;;;;;;5006722;28;20505;-26
2021/07/23 03:47:36;;;;;;;2.60;2.40;;;22.90;75.90;;;;;;5009260;28;20470;-26
2021/07/23 03:50:08;;;;;;;2.00;1.90;;;22.80;76.40;;;;;;5006390;28;20502;-26
2021/07/23 03:52:40;;;;;;;4.03;2.23;;;22.80;77.10;;;;;;5005920;28;20430;-26
2021/07/23 03:55:13;;;;;;;2.40;2.20;;;22.70;77.80;;;;;;5018009;28;20421;-26
2021/07/23 03:57:44;;;;;;;2.50;2.30;;;22.60;78.40;;;;;;5017474;28;20447;-26
2021/07/23 04:00:16;;;;;;;2.10;1.90;;;22.60;79.10;;;;;;5016486;28;20561;-26
2021/07/23 04:02:47;;;;;;;2.03;1.90;;;22.50;79.80;;;;;;5014433;28;20460;-26
2021/07/23 04:05:19;;;;;;;2.80;2.17;;;22.40;80.40;;;;;;5025704;28;20492;-26
2021/07/23 04:07:50;;;;;;;2.47;2.27;;;22.30;81.50;;;;;;5020818;28;20424;-26
2021/07/23 04:10:22;;;;;;;3.00;2.40;;;22.20;82.10;;;;;;5025997;28;20450;-26
2021/07/23 04:12:53;;;;;;;2.30;2.10;;;22.10;83.10;;;;;;5008731;28;20489;-26
2021/07/23 04:15:24;;;;;;;2.47;2.27;;;22.00;83.70;;;;;;5019439;28;20519;-26
2021/07/23 04:17:55;;;;;;;2.70;2.10;;;22.00;85.00;;;;;;5013895;28;20508;-26
2021/07/23 04:20:26;;;;;;;2.33;2.13;;;21.90;85.00;;;;;;5016132;28;20784;-26
2021/07/23 04:22:57;;;;;;;2.30;2.20;;;21.70;85.90;;;;;;5007468;28;20549;-26
2021/07/23 04:25:30;;;;;;;2.40;2.17;;;21.70;86.30;;;;;;5021598;28;20430;-26
2021/07/23 04:28:01;;;;;;;3.30;2.00;;;21.60;87.20;;;;;;5005223;28;20461;-26
2021/07/23 04:30:32;;;;;;;2.43;2.23;;;21.50;87.80;;;;;;5008214;28;20436;-26
2021/07/23 04:33:03;;;;;;;2.03;1.93;;;21.50;88.70;;;;;;5015338;28;20450;-26
2021/07/23 04:35:34;;;;;;;2.00;1.80;;;21.30;89.60;;;;;;5021507;28;20455;-26
2021/07/23 04:38:05;;;;;;;2.13;2.03;;;21.30;90.30;;;;;;5019214;28;20429;-26
2021/07/23 04:40:37;;;;;;;2.20;2.00;;;21.10;90.90;;;;;;5025402;28;20446;-27
2021/07/23 04:43:09;;;;;;;2.63;1.70;;;21.10;91.30;;;;;;5010486;28;20522;-27
2021/07/23 04:45:40;;;;;;;3.00;2.13;;;20.90;91.70;;;;;;5008366;28;20992;-26
2021/07/23 04:48:11;;;;;;;2.27;2.17;;;20.90;92.10;;;;;;5011080;28;20801;-26
2021/07/23 04:50:42;;;;;;;3.77;2.20;;;20.90;92.50;;;;;;5025231;28;20445;-26
2021/07/23 04:53:13;;;;;;;1.73;1.63;;;20.80;92.70;;;;;;5014465;28;20966;-26
2021/07/23 04:55:50;;;;;;;2.00;1.90;;;20.80;92.90;;;;;;5014511;28;20450;-26
2021/07/23 04:58:21;;;;;;;2.60;2.40;;;20.70;93.30;;;;;;5019293;28;20482;-26
2021/07/23 05:00:53;;;;;;;1.93;1.83;;;20.70;93.60;;;;;;5021597;28;20471;-26
2021/07/23 05:03:33;;;;;;;1.80;1.70;;;20.70;93.90;;;;;;5007125;28;20517;-26
2021/07/23 05:06:07;;;;;;;2.30;2.10;;;20.60;94.30;;;;;;5020530;28;20425;-26
2021/07/23 05:08:39;;;;;;;2.23;2.10;;;20.50;94.80;;;;;;5021368;28;20425;-26
2021/07/23 05:11:14;;;;;;;2.30;1.90;;;20.40;95.10;;;;;;5022915;28;20420;-26
2021/07/23 05:13:46;;;;;;;2.00;1.83;;;20.40;95.50;;;;;;5017467;28;20470;-26
2021/07/23 05:16:17;;;;;;;2.43;2.03;;;20.30;96.00;;;;;;5007492;28;20525;-25
2021/07/23 05:18:48;;;;;;;3.40;1.80;;;20.30;96.10;;;;;;5007859;28;20441;-26
2021/07/23 05:21:19;;;;;;;2.23;2.03;;;20.20;96.50;;;;;;5023297;28;20461;-25
2021/07/23 05:23:50;;;;;;;3.43;2.10;;;20.20;96.50;;;;;;5023759;28;20532;-25
2021/07/23 05:26:23;;;;;;;2.10;1.80;;;20.10;96.60;;;;;;5022834;28;20489;-26
2021/07/23 05:28:55;;;;;;;2.30;1.80;;;20.10;96.70;;;;;;5007799;28;20447;-25
2021/07/23 05:31:25;;;;;;;2.10;1.90;;;20.00;96.70;;;;;;5016455;28;20473;-25
2021/07/23 05:33:58;;;;;;;2.40;1.50;;;20.00;96.60;;;;;;5007266;28;20463;-26
2021/07/23 05:36:29;;;;;;;2.07;1.90;;;19.90;96.40;;;;;;5008773;28;20482;-25
2021/07/23 05:39:00;;;;;;;1.93;1.83;;;19.80;96.80;;;;;;5022119;28;20474;-24
2021/07/23 05:41:33;;;;;;;1.60;1.50;;;19.80;96.50;;;;;;5023392;28;20454;-32
2021/07/23 05:44:05;;;;;;;2.03;1.83;;;19.80;96.60;;;;;;5023037;28;20482;-25
2021/07/23 05:46:35;;;;;;;2.37;2.17;;;19.70;96.70;;;;;;5021365;28;20428;-24
2021/07/23 05:49:07;;;;;;;2.30;2.13;;;19.60;96.90;;;;;;5012394;28;20462;-25
2021/07/23 05:51:38;;;;;;;2.23;1.80;;;19.50;97.10;;;;;;5022431;28;20499;-25
2021/07/23 05:54:09;;;;;;;2.10;1.77;;;19.50;97.20;;;;;;5018451;28;20454;-25
2021/07/23 05:56:41;;;;;;;1.93;1.67;;;19.40;97.50;;;;;;5020412;28;20485;-25
2021/07/23 05:59:12;;;;;;;4.43;1.90;;;19.40;97.60;;;;;;5016096;28;20447;-25
2021/07/23 06:01:43;;;;;;;3.80;2.10;;;19.30;98.00;;;;;;5006697;28;20443;-25
2021/07/23 06:04:14;;;;;;;1.90;1.80;;;19.20;98.20;;;;;;5012536;28;20629;-25
2021/07/23 06:06:45;;;;;;;3.27;2.30;;;19.20;98.20;;;;;;5021094;28;20473;-25
2021/07/23 06:09:16;;;;;;;2.00;1.80;;;19.20;98.40;;;;;;5022127;28;20459;-25
2021/07/23 06:11:49;;;;;;;2.40;1.83;;;19.10;98.60;;;;;;5014743;28;20453;-25
2021/07/23 06:14:20;;;;;;;2.27;2.07;;;19.10;98.90;;;;;;5022830;28;20911;-26
2021/07/23 06:16:51;;;;;;;1.90;1.80;;;19.10;99.00;;;;;;5016536;28;20445;-26
2021/07/23 06:19:22;;;;;;;1.70;1.60;;;19.00;99.00;;;;;;5020113;28;20440;-26
2021/07/23 06:21:53;;;;;;;2.27;2.17;;;18.90;99.20;;;;;;5011624;28;20430;-26
2021/07/23 06:24:24;;;;;;;2.13;1.90;;;18.80;99.60;;;;;;5011894;28;20533;-26
2021/07/23 06:26:56;;;;;;;1.80;1.57;;;18.80;99.80;;;;;;5020029;28;20455;-26
2021/07/23 06:29:27;;;;;;;1.77;1.67;;;18.80;99.80;;;;;;5008256;28;20447;-26
2021/07/23 06:31:59;;;;;;;1.67;1.57;;;18.70;99.80;;;;;;5022743;28;20458;-26
2021/07/23 06:34:30;;;;;;;2.90;2.03;;;18.70;99.90;;;;;;5023086;28;20594;-26
2021/07/23 06:37:03;;;;;;;2.07;1.97;;;18.60;99.90;;;;;;5021889;28;20914;-26
2021/07/23 06:39:34;;;;;;;2.70;2.50;;;18.70;99.90;;;;;;5019128;28;20532;-26
2021/07/23 06:42:08;;;;;;;3.27;1.90;;;18.50;99.90;;;;;;5016941;28;20502;-26
2021/07/23 06:44:39;;;;;;;2.90;1.57;;;18.50;99.90;;;;;;5007219;28;20540;-26
2021/07/23 06:47:10;;;;;;;1.90;1.60;;;18.50;99.90;;;;;;5009277;28;20459;-26
2021/07/23 06:49:41;;;;;;;2.23;1.70;;;18.40;99.90;;;;;;5014216;28;20447;-26
2021/07/23 06:52:12;;;;;;;2.27;1.50;;;18.40;99.90;;;;;;5018838;28;20446;-26
2021/07/23 06:54:44;;;;;;;1.90;1.70;;;18.40;99.90;;;;;;5020712;28;20538;-26
2021/07/23 06:57:19;;;;;;;1.83;1.73;;;18.40;99.90;;;;;;5021580;28;20450;-26
2021/07/23 06:59:50;;;;;;;2.20;1.87;;;18.30;99.90;;;;;;5037552;28;20463;-25
2021/07/23 07:02:21;;;;;;;2.00;1.53;;;18.20;99.90;;;;;;5017765;28;20448;-26
2021/07/23 07:04:52;;;;;;;3.50;2.23;;;18.20;99.90;;;;;;5009257;28;20564;-26
2021/07/23 07:07:23;;;;;;;2.87;1.40;;;18.10;99.90;;;;;;5008224;28;20826;-26
2021/07/23 07:09:54;;;;;;;2.37;1.90;;;18.10;99.90;;;;;;5019229;28;20509;-26
2021/07/23 07:12:27;;;;;;;2.90;1.90;;;18.10;99.90;;;;;;5002976;28;20570;-26
2021/07/23 07:14:58;;;;;;;1.67;1.57;;;18.00;99.90;;;;;;5009136;28;20775;-26
2021/07/23 07:17:29;;;;;;;1.73;1.63;;;18.00;99.90;;;;;;5022797;28;20537;-26
2021/07/23 07:20:00;;;;;;;1.67;1.57;;;17.90;99.90;;;;;;5006644;28;20474;-26
2021/07/23 07:22:31;;;;;;;2.63;1.40;;;17.90;99.90;;;;;;5024307;28;20454;-26
2021/07/23 07:25:03;;;;;;;1.60;1.50;;;17.90;99.90;;;;;;5024734;28;20544;-26
2021/07/23 07:27:35;;;;;;;1.50;1.40;;;17.80;99.90;;;;;;5007852;28;20474;-26
2021/07/23 07:30:07;;;;;;;2.50;1.87;;;17.70;99.90;;;;;;5012657;28;20428;-26
2021/07/23 07:32:38;;;;;;;2.00;1.47;;;17.60;99.90;;;;;;5025282;28;20481;-26
2021/07/23 07:35:10;;;;;;;3.53;1.70;;;17.60;99.90;;;;;;5022045;28;20473;-25
2021/07/23 07:37:41;;;;;;;1.50;1.40;;;17.50;99.90;;;;;;5011932;28;20914;-25
2021/07/23 07:40:13;;;;;;;1.40;1.30;;;17.50;99.90;;;;;;5023041;28;20509;-25
2021/07/23 07:42:46;;;;;;;1.77;1.67;;;17.50;99.90;;;;;;5013969;28;20602;-26
2021/07/23 07:45:17;;;;;;;1.33;1.23;;;17.40;99.90;;;;;;5020573;28;20520;-25
2021/07/23 07:47:48;;;;;;;1.77;1.67;;;17.40;99.90;;;;;;5022411;28;20495;-25
2021/07/23 07:50:19;;;;;;;2.00;1.90;;;17.40;99.90;;;;;;5020283;28;20500;-25
2021/07/23 07:52:52;;;;;;;2.30;2.03;;;17.40;99.90;;;;;;5020602;28;20462;-25
2021/07/23 07:55:23;;;;;;;1.80;1.70;;;17.30;99.90;;;;;;5020654;28;20864;-25
2021/07/23 07:57:56;;;;;;;1.90;1.70;;;17.30;99.90;;;;;;5021809;28;20453;-25
2021/07/23 08:00:27;;;;;;;1.30;1.30;;;17.20;99.90;;;;;;5010165;28;20450;-25
2021/07/23 08:02:58;;;;;;;3.77;1.93;;;17.20;99.90;;;;;;5014380;28;20513;-25
2021/07/23 08:05:29;;;;;;;2.47;1.67;;;17.20;99.90;;;;;;5013082;28;20478;-25
2021/07/23 08:08:03;;;;;;;2.27;1.37;;;17.20;99.90;;;;;;5020668;28;20454;-24
2021/07/23 08:10:36;;;;;;;2.23;1.87;;;17.20;99.90;;;;;;5017043;28;20455;-25
2021/07/23 08:13:08;;;;;;;1.73;1.53;;;17.10;99.90;;;;;;5014408;28;20481;-25
2021/07/23 08:15:39;;;;;;;3.10;1.47;;;17.00;99.90;;;;;;5014401;28;20821;-25
2021/07/23 08:18:10;;;;;;;1.57;1.47;;;17.00;99.90;;;;;;5012795;28;20450;-25
2021/07/23 08:20:42;;;;;;;1.70;1.60;;;17.00;99.90;;;;;;5005372;28;20497;-25
2021/07/23 08:23:13;;;;;;;1.73;1.63;;;17.00;99.90;;;;;;5005773;28;20760;-25
2021/07/23 08:25:44;;;;;;;2.20;2.00;;;16.90;99.90;;;;;;5023224;28;20509;-25
2021/07/23 08:28:17;;;;;;;2.57;1.40;;;16.90;99.90;;;;;;5012322;28;20447;-25
2021/07/23 08:30:48;;;;;;;1.77;1.47;;;16.70;99.90;;;;;;5005965;28;20469;-25
2021/07/23 08:33:21;;;;;;;1.50;1.40;;;16.70;99.90;;;;;;5005942;28;20558;-26
2021/07/23 08:35:52;;;;;;;1.50;1.40;;;16.60;99.90;;;;;;5018375;28;20485;-25
2021/07/23 08:38:23;;;;;;;1.30;1.20;;;16.60;99.90;;;;;;5007470;28;20478;-25
2021/07/23 08:40:54;;;;;;;1.77;1.50;;;16.50;99.90;;;;;;5016727;28;20474;-26
2021/07/23 08:43:27;;;;;;;1.80;1.47;;;16.50;99.90;;;;;;5005872;28;20486;-26
2021/07/23 08:45:58;;;;;;;1.87;1.73;;;16.50;99.90;;;;;;5012341;28;20586;-25
2021/07/23 08:48:29;;;;;;;1.10;1.10;;;16.40;99.90;;;;;;5008275;28;20447;-26
2021/07/23 08:51:00;;;;;;;1.97;1.80;;;16.40;99.90;;;;;;5007871;28;20547;-26
2021/07/23 08:53:31;;;;;;;1.30;1.20;;;16.30;99.90;;;;;;5014239;28;20455;-26
2021/07/23 08:56:02;;;;;;;1.57;1.47;;;16.30;99.90;;;;;;5031707;28;20488;-26
2021/07/23 08:58:36;;;;;;;1.40;1.30;;;16.20;99.90;;;;;;5025280;28;20493;-25
2021/07/23 09:01:07;;;;;;;3.07;1.70;;;16.20;99.90;;;;;;5013314;28;20460;-25
2021/07/23 09:03:38;;;;;;;1.60;1.40;;;16.20;99.90;;;;;;5024649;28;20478;-26
2021/07/23 09:06:19;;;;;;;1.63;1.53;;;16.10;99.90;;;;;;5010820;28;20487;-25
2021/07/23 09:08:50;;;;;;;1.70;1.60;;;16.10;99.90;;;;;;5022453;28;20471;-24
2021/07/23 09:11:28;;;;;;;2.10;1.90;;;16.10;99.90;;;;;;5023541;28;20462;-24
2021/07/23 09:14:20;;;;;;;2.83;1.73;;;16.00;99.90;;;;;;5024005;28;20454;-25
2021/07/23 09:16:57;;;;;;;2.13;1.60;;;15.90;99.90;;;;;;5005668;28;20461;-25
2021/07/23 09:19:28;;;;;;;1.33;1.23;;;15.80;99.90;;;;;;5010334;28;20530;-25
2021/07/23 09:22:02;;;;;;;1.93;1.60;;;15.80;99.90;;;;;;5022829;28;20469;-25
2021/07/23 09:24:53;;;;;;;2.00;1.60;;;15.70;99.90;;;;;;5024602;28;20468;-25
2021/07/23 09:27:39;;;;;;;1.97;1.87;;;15.70;99.90;;;;;;5017140;28;20471;-25
2021/07/23 09:30:14;;;;;;;1.70;1.60;;;15.60;99.90;;;;;;5011681;28;20451;-24
2021/07/23 09:32:45;;;;;;;2.80;1.53;;;15.50;99.90;;;;;;5006805;28;20454;-25
2021/07/23 09:35:17;;;;;;;1.87;1.77;;;15.50;99.90;;;;;;5021022;28;20462;-25
2021/07/23 09:37:56;;;;;;;1.90;1.70;;;15.50;99.90;;;;;;5020446;28;20482;-25
2021/07/23 09:40:43;;;;;;;3.07;1.40;;;15.60;99.90;;;;;;5017303;28;20446;-24
2021/07/23 09:43:18;;;;;;;1.77;1.30;;;15.40;99.90;;;;;;5023636;28;20485;-25
2021/07/23 09:45:50;;;;;;;1.10;1.10;;;15.40;99.90;;;;;;5013399;28;20533;-25
2021/07/23 09:48:21;;;;;;;2.53;1.40;;;15.40;99.90;;;;;;5005595;28;20436;-25
2021/07/23 09:50:53;;;;;;;1.60;1.50;;;15.30;99.90;;;;;;5004418;28;20487;-24
2021/07/23 09:53:24;;;;;;;2.70;1.60;;;15.30;99.90;;;;;;5012174;28;20516;-25
2021/07/23 09:55:55;;;;;;;3.10;2.90;;;15.40;99.90;;;;;;5015364;28;20458;-25
2021/07/23 09:58:29;;;;;;;2.17;1.33;;;15.30;99.90;;;;;;5008214;28;20443;-25
2021/07/23 10:01:03;;;;;;;2.13;1.43;;;15.30;99.90;;;;;;5016451;28;20465;-24
2021/07/23 10:03:44;;;;;;;1.50;1.40;;;15.20;99.90;;;;;;5008173;28;20450;-25
2021/07/23 10:06:23;;;;;;;1.90;1.80;;;15.20;99.90;;;;;;5016904;28;20488;-25
2021/07/23 10:08:57;;;;;;;3.40;1.60;;;15.20;99.90;;;;;;5023359;28;20466;-25
2021/07/23 10:11:28;;;;;;;1.80;1.70;;;15.10;99.90;;;;;;5008806;28;20541;-26
2021/07/23 10:14:02;;;;;;;1.57;1.33;;;15.20;99.90;;;;;;5020311;28;20481;-26
2021/07/23 10:16:36;;;;;;;1.50;1.40;;;15.20;99.90;;;;;;5024118;28;20450;-26
2021/07/23 10:19:08;;;;;;;1.50;1.37;;;15.20;99.90;;;;;;5024062;28;20512;-25
2021/07/23 10:21:39;;;;;;;1.80;1.70;;;15.10;99.90;;;;;;5022397;28;20454;-24
2021/07/23 10:24:11;;;;;;;1.50;1.40;;;15.20;99.90;;;;;;5020881;28;20513;-25
2021/07/23 10:26:42;;;;;;;1.37;1.27;;;15.20;99.90;;;;;;5013142;28;20501;-24
2021/07/23 10:29:13;;;;;;;1.70;1.60;;;15.20;99.90;;;;;;5011251;28;20462;-25
2021/07/23 10:31:48;;;;;;;1.60;1.50;;;15.20;99.90;;;;;;5022828;28;20447;-25
2021/07/23 10:34:39;;;;;;;1.87;1.70;;;15.20;99.90;;;;;;5019892;28;20481;-25
2021/07/23 10:37:10;;;;;;;1.43;1.33;;;15.10;99.90;;;;;;5000326;28;20567;-25
2021/07/23 10:39:41;;;;;;;1.40;1.30;;;15.00;99.90;;;;;;5003993;28;20501;-25
2021/07/23 10:42:35;;;;;;;2.57;1.40;;;15.00;99.90;;;;;;5011771;28;20498;-25
2021/07/23 10:45:09;;;;;;;3.50;2.10;;;14.90;99.90;;;;;;5013242;28;20452;-25
2021/07/23 10:47:46;;;;;;;2.00;1.87;;;14.90;99.90;;;;;;5006679;28;20520;-25
2021/07/23 10:50:50;;;;;;;3.53;2.00;;;14.80;99.90;;;;;;5023107;28;20454;-25
2021/07/23 10:53:37;;;;;;;3.90;3.20;;;14.70;99.90;;;;;;5016099;28;20457;-25
2021/07/23 10:56:08;;;;;;;6.63;4.20;;;14.60;99.90;;;;;;5020616;28;20474;-25
2021/07/23 10:58:39;;;;;;;4.47;4.07;;;14.70;99.90;;;;;;5010422;28;20851;-25
2021/07/23 11:01:10;;;;;;;6.20;4.27;;;14.70;99.90;;;;;;5015496;28;20814;-25
2021/07/23 11:03:58;;;;;;;5.33;4.83;;;14.70;99.90;;;;;;5011554;28;20568;-25
2021/07/23 11:06:40;;;;;;;5.37;4.87;;;14.70;99.90;;;;;;5003463;28;20501;-25
2021/07/23 11:09:15;;;;;;;5.23;4.07;;;14.70;99.90;;;;;;5015683;28;20458;-25
2021/07/23 11:11:46;;;;;;;4.40;4.00;;;14.70;99.90;;;;;;5008588;28;20489;-25
2021/07/23 11:14:21;;;;;;;5.40;4.90;;;14.60;99.90;;;;;;5010346;28;20450;-24
2021/07/23 11:17:03;;;;;;;4.97;4.57;;;14.50;99.90;;;;;;5010206;28;20530;-24
2021/07/23 11:19:36;;;;;;;5.90;4.80;;;14.50;99.90;;;;;;5016689;28;20450;-24
2021/07/23 11:22:11;;;;;;;7.17;4.30;;;14.40;99.90;;;;;;5022024;28;20450;-25
2021/07/23 11:24:43;;;;;;;4.23;3.83;;;14.30;99.90;;;;;;5018000;28;20447;-25
2021/07/23 11:27:24;;;;;;;4.20;3.47;;;14.30;99.90;;;;;;5006116;28;20486;-24
2021/07/23 11:29:56;;;;;;;4.43;4.03;;;14.20;99.90;;;;;;5021686;28;20461;-24
2021/07/23 11:32:28;;;;;;;3.87;3.50;;;14.20;99.90;;;;;;5004080;28;20509;-26
2021/07/23 11:35:08;;;;;;;5.23;3.70;;;14.10;99.90;;;;;;5020588;28;20489;-25
2021/07/23 11:37:39;;;;;;;4.27;3.33;;;14.20;99.90;;;;;;5010795;28;20454;-24
2021/07/23 11:40:11;;;;;;;3.50;3.20;;;14.10;99.90;;;;;;5020448;28;20482;-24
2021/07/23 11:42:44;;;;;;;3.97;3.30;;;14.10;99.90;;;;;;5005848;28;20510;-25
2021/07/23 11:45:16;;;;;;;3.20;2.90;;;14.10;99.90;;;;;;5018351;28;20474;-24
2021/07/23 11:47:48;;;;;;;3.70;3.00;;;14.10;99.90;;;;;;5022730;28;20478;-24
2021/07/23 11:50:24;;;;;;;3.60;2.70;;;14.10;99.90;;;;;;5022817;28;20529;-24
2021/07/23 11:53:02;;;;;;;2.73;2.50;;;14.10;99.90;;;;;;5006800;28;20469;-24
2021/07/23 11:55:41;;;;;;;2.83;2.20;;;14.10;99.90;;;;;;5022946;28;20454;-25
2021/07/23 11:58:23;;;;;;;2.73;2.40;;;14.00;99.90;;;;;;4999269;28;20482;-25
2021/07/23 12:00:54;;;;;;;2.70;2.50;;;14.00;99.90;;;;;;5016358;28;20454;-24
2021/07/23 12:03:26;;;;;;;3.20;2.43;;;13.90;99.90;;;;;;5017843;28;20514;-25
2021/07/23 12:06:10;;;;;;;2.73;2.53;;;14.00;99.90;;;;;;5018726;28;20454;-25
2021/07/23 12:08:43;;;;;;;3.10;2.80;;;13.90;99.90;;;;;;5015571;28;20525;-25
2021/07/23 12:11:15;;;;;;;3.03;2.73;;;13.90;99.90;;;;;;5020742;28;20459;-24
2021/07/23 12:14:06;;;;;;;2.70;2.40;;;13.80;99.90;;;;;;5019246;28;20450;-24
2021/07/23 12:16:41;;;;;;;2.60;2.00;;;13.80;99.90;;;;;;5018390;28;20446;-25
2021/07/23 12:19:19;;;;;;;2.00;1.90;;;13.80;99.90;;;;;;5026008;28;20465;-25
2021/07/23 12:21:52;;;;;;;2.20;2.00;;;13.70;99.90;;;;;;5025013;28;20464;-25
2021/07/23 12:24:32;;;;;;;2.27;1.80;;;13.70;99.90;;;;;;5014293;28;20447;-25
2021/07/23 12:27:16;;;;;;;3.93;2.00;;;13.70;99.90;;;;;;5016632;28;20462;-25
2021/07/23 12:29:48;;;;;;;2.33;2.17;;;13.60;99.90;;;;;;5025261;28;20474;-25
2021/07/23 12:32:24;;;;;;;1.50;1.40;;;13.60;99.90;;;;;;5024825;28;20463;-25
2021/07/23 12:34:58;;;;;;;1.90;1.80;;;13.60;99.90;;;;;;5019349;28;20496;-24
2021/07/23 12:37:32;;;;;;;2.07;1.87;;;13.70;99.90;;;;;;5022356;28;20453;-24
2021/07/23 12:40:05;;;;;;;2.03;1.67;;;13.70;99.90;;;;;;5013379;28;20455;-24
2021/07/23 12:42:38;;;;;;;1.80;1.70;;;13.70;99.90;;;;;;5005940;28;20510;-24
2021/07/23 12:45:10;;;;;;;1.93;1.83;;;13.60;99.90;;;;;;5011782;28;20479;-24
2021/07/23 12:47:47;;;;;;;3.30;2.07;;;13.60;99.90;;;;;;5016342;28;20552;-24
2021/07/23 12:50:19;;;;;;;3.03;2.07;;;13.60;99.90;;;;;;5032838;28;20451;-25
2021/07/23 12:52:55;;;;;;;8.37;2.30;;;13.60;99.90;;;;;;5021889;28;20522;-24
2021/07/23 12:55:28;;;;;;;2.97;1.97;;;13.50;99.90;;;;;;5021982;28;20499;-25
2021/07/23 12:57:59;;;;;;;2.80;2.20;;;13.50;99.90;;;;;;5023830;28;20451;-25
2021/07/23 13:00:30;;;;;;;2.00;1.90;;;13.50;99.90;;;;;;5024860;28;20489;-25
2021/07/23 13:03:01;;;;;;;2.20;2.00;;;13.50;99.90;;;;;;5021626;28;20479;-25
2021/07/23 13:05:37;;;;;;;3.10;2.37;;;13.50;99.90;;;;;;5014537;28;20447;-24
2021/07/23 13:08:10;;;;;;;2.47;2.27;;;13.40;99.90;;;;;;5008840;28;20485;-24
2021/07/23 13:10:41;;;;;;;2.17;1.97;;;13.40;99.90;;;;;;5024073;28;20918;-25
2021/07/23 13:13:12;;;;;;;1.83;1.73;;;13.30;99.90;;;;;;5024368;28;20450;-26
2021/07/23 13:15:43;;;;;;;2.30;2.10;;;13.30;99.90;;;;;;5022670;28;20775;-25
2021/07/23 13:18:14;;;;;;;2.10;1.90;;;13.40;99.90;;;;;;5023272;28;20512;-25